Time;durP1;ratioP1;P1;durP2;ratioP2;P2;SDS_P1;SDS_P2;PMS_P1;PMS_P2;Temp;Humidity;BMP_temperature;BMP_pressure;BME280_temperature;BME280_humidity;BME280_pressure;Samples;Min_cycle;Max_cycle;Signal;HPM_P1;HPM_P2
2022/05/13 00:00:36;;;;;;;8.73;1.70;;;;;;;;;;10267067;28;20107;-63
2022/05/13 00:05:32;;;;;;;10.32;1.85;;;;;;;;;;10247988;28;20075;-63
2022/05/13 00:10:28;;;;;;;6.30;1.50;;;;;;;;;;10266435;28;20041;-63
2022/05/13 00:15:26;;;;;;;7.80;1.88;;;;;;;;;;10263844;28;20053;-63
2022/05/13 00:20:23;;;;;;;9.57;2.35;;;;;;;;;;10263907;28;20077;-63
2022/05/13 00:25:21;;;;;;;6.70;1.23;;;;;;;;;;10274983;28;20171;-63
2022/05/13 00:30:18;;;;;;;7.20;1.80;;;;;;;;;;10272625;28;20052;-62
2022/05/13 00:35:15;;;;;;;8.88;1.73;;;;;;;;;;10274485;28;20106;-65
2022/05/13 00:40:12;;;;;;;10.20;2.35;;;;;;;;;;10269687;28;20132;-63
2022/05/13 00:45:13;;;;;;;9.88;1.70;;;;;;;;;;10266236;28;20049;-63
2022/05/13 00:50:10;;;;;;;7.65;1.48;;;;;;;;;;10274363;28;20049;-67
2022/05/13 00:55:09;;;;;;;10.77;2.13;;;;;;;;;;10273115;28;20080;-66
2022/05/13 01:00:08;;;;;;;9.55;2.00;;;;;;;;;;10274419;28;20118;-65
2022/05/13 01:05:06;;;;;;;10.43;1.80;;;;;;;;;;10269860;28;20505;-65
2022/05/13 01:10:04;;;;;;;13.18;2.47;;;;;;;;;;10269362;28;20148;-65
2022/05/13 01:15:04;;;;;;;6.90;2.47;;;;;;;;;;10264389;28;20570;-66
2022/05/13 01:20:00;;;;;;;9.50;2.63;;;;;;;;;;10274407;28;20449;-66
2022/05/13 01:24:57;;;;;;;7.47;2.25;;;;;;;;;;10267470;28;20661;-67
2022/05/13 01:29:54;;;;;;;9.38;2.47;;;;;;;;;;10274135;28;20702;-67
2022/05/13 01:34:50;;;;;;;13.88;2.40;;;;;;;;;;10262143;28;20045;-64
2022/05/13 01:39:47;;;;;;;12.00;2.38;;;;;;;;;;10271504;28;20069;-63
2022/05/13 01:44:43;;;;;;;11.27;2.63;;;;;;;;;;10268424;28;20080;-64
2022/05/13 01:49:39;;;;;;;10.98;2.25;;;;;;;;;;10269458;28;20065;-63
2022/05/13 01:54:36;;;;;;;11.23;2.60;;;;;;;;;;10271034;28;20587;-64
2022/05/13 01:59:32;;;;;;;14.35;2.50;;;;;;;;;;10261815;28;20037;-64
2022/05/13 02:04:28;;;;;;;10.80;2.50;;;;;;;;;;10291176;28;20496;-64
2022/05/13 02:09:25;;;;;;;8.98;2.42;;;;;;;;;;10277389;28;20087;-63
2022/05/13 02:14:22;;;;;;;8.73;2.20;;;;;;;;;;10264273;28;20091;-65
2022/05/13 02:19:18;;;;;;;9.00;2.30;;;;;;;;;;10270990;28;20571;-65
2022/05/13 02:24:14;;;;;;;8.55;2.20;;;;;;;;;;10262515;28;21207;-64
2022/05/13 02:29:11;;;;;;;7.03;2.03;;;;;;;;;;10270286;28;20076;-64
2022/05/13 02:34:07;;;;;;;7.03;1.73;;;;;;;;;;10263434;28;20041;-64
2022/05/13 02:39:03;;;;;;;10.65;2.65;;;;;;;;;;10270437;28;20095;-63
2022/05/13 02:43:59;;;;;;;13.18;2.63;;;;;;;;;;10256914;28;20053;-63
2022/05/13 02:48:56;;;;;;;8.98;2.33;;;;;;;;;;10265012;28;20091;-64
2022/05/13 02:53:52;;;;;;;7.25;2.58;;;;;;;;;;10259439;28;20674;-63
2022/05/13 02:58:49;;;;;;;9.43;2.60;;;;;;;;;;10269485;28;20041;-63
2022/05/13 03:03:46;;;;;;;10.02;2.22;;;;;;;;;;10269304;28;20112;-66
2022/05/13 03:08:42;;;;;;;7.50;2.33;;;;;;;;;;10261936;28;20114;-67
2022/05/13 03:13:39;;;;;;;6.03;1.95;;;;;;;;;;10161670;28;20094;-67
2022/05/13 03:18:39;;;;;;;9.30;2.53;;;;;;;;;;10072581;28;20035;-67
2022/05/13 03:23:35;;;;;;;6.93;2.33;;;;;;;;;;10052884;28;20074;-66
2022/05/13 03:28:31;;;;;;;12.50;2.92;;;;;;;;;;10081894;28;20105;-64
2022/05/13 03:33:28;;;;;;;8.10;2.65;;;;;;;;;;10057403;28;20579;-63
2022/05/13 03:38:24;;;;;;;11.93;3.42;;;;;;;;;;10064317;28;20078;-63
2022/05/13 03:43:21;;;;;;;12.23;3.05;;;;;;;;;;10056233;28;20055;-64
2022/05/13 03:48:17;;;;;;;9.55;3.20;;;;;;;;;;10063130;28;20222;-67
2022/05/13 03:53:14;;;;;;;10.45;2.42;;;;;;;;;;10052359;28;20640;-68
2022/05/13 03:58:10;;;;;;;6.82;2.72;;;;;;;;;;10055311;28;20530;-64
2022/05/13 04:03:07;;;;;;;9.10;2.70;;;;;;;;;;10185519;28;20392;-65
2022/05/13 04:18:33;;;;;;;7.45;2.50;;;;;;;;;;10248382;28;20461;-67
2022/05/13 04:23:31;;;;;;;9.32;3.03;;;;;;;;;;10243512;28;20830;-67
2022/05/13 04:28:28;;;;;;;9.27;2.60;;;;;;;;;;10238596;28;20052;-66
2022/05/13 04:33:25;;;;;;;7.22;2.58;;;;;;;;;;10247902;28;20041;-65
2022/05/13 04:38:22;;;;;;;10.48;2.83;;;;;;;;;;10254083;28;20060;-65
2022/05/13 04:43:18;;;;;;;14.40;3.25;;;;;;;;;;10250399;28;20045;-64
2022/05/13 04:48:26;;;;;;;11.32;2.50;;;;;;;;;;10255521;28;20060;-69
2022/05/13 04:53:25;;;;;;;9.32;2.55;;;;;;;;;;10287636;28;20047;-71
2022/05/13 04:58:22;;;;;;;6.75;2.10;;;;;;;;;;10261533;28;20041;-69
2022/05/13 05:03:19;;;;;;;9.75;2.50;;;;;;;;;;10243598;28;20460;-70
2022/05/13 05:08:16;;;;;;;5.35;2.00;;;;;;;;;;10250046;28;20045;-67
2022/05/13 05:13:24;;;;;;;6.35;2.28;;;;;;;;;;10258744;28;20041;-67
2022/05/13 05:18:20;;;;;;;7.90;1.90;;;;;;;;;;10255719;28;20828;-67
2022/05/13 05:23:25;;;;;;;10.35;2.05;;;;;;;;;;10260663;28;20040;-62
2022/05/13 05:28:21;;;;;;;11.85;2.00;;;;;;;;;;10247544;28;20049;-63
2022/05/13 05:33:18;;;;;;;10.57;2.03;;;;;;;;;;10263349;28;20490;-64
2022/05/13 05:38:15;;;;;;;10.32;2.45;;;;;;;;;;10305630;28;20048;-63
2022/05/13 05:43:13;;;;;;;13.63;2.00;;;;;;;;;;10263067;28;20063;-63
2022/05/13 05:48:11;;;;;;;10.32;1.90;;;;;;;;;;10261961;28;20037;-66
2022/05/13 05:53:07;;;;;;;10.38;2.05;;;;;;;;;;10272524;28;20091;-65
2022/05/13 05:58:05;;;;;;;7.50;2.28;;;;;;;;;;10269182;28;20411;-64
2022/05/13 06:03:02;;;;;;;8.38;2.28;;;;;;;;;;10242787;28;20156;-63
2022/05/13 06:08:00;;;;;;;13.18;2.85;;;;;;;;;;10241939;28;20481;-67
2022/05/13 06:12:56;;;;;;;12.00;2.42;;;;;;;;;;10240253;28;20060;-67
2022/05/13 06:17:54;;;;;;;11.23;2.92;;;;;;;;;;10240256;28;20041;-67
2022/05/13 06:22:51;;;;;;;5.88;1.80;;;;;;;;;;10242381;28;20045;-69
2022/05/13 06:27:50;;;;;;;8.38;1.85;;;;;;;;;;10265502;28;20045;-65
2022/05/13 06:32:47;;;;;;;12.98;2.90;;;;;;;;;;10171556;28;20573;-65
2022/05/13 06:37:43;;;;;;;8.13;2.53;;;;;;;;;;10187390;28;20041;-67
2022/05/13 06:42:40;;;;;;;7.63;2.45;;;;;;;;;;10260536;28;20103;-67
2022/05/13 06:47:36;;;;;;;9.48;3.60;;;;;;;;;;10287831;28;20045;-66
2022/05/13 06:52:33;;;;;;;11.98;2.78;;;;;;;;;;10260016;28;20458;-66
2022/05/13 06:57:37;;;;;;;10.60;2.75;;;;;;;;;;10285454;28;20048;-67
2022/05/13 07:02:34;;;;;;;11.02;2.97;;;;;;;;;;10270749;28;20068;-67
2022/05/13 07:07:30;;;;;;;9.63;3.00;;;;;;;;;;10274043;28;20877;-66
2022/05/13 07:12:27;;;;;;;11.52;2.92;;;;;;;;;;10276505;28;20064;-65
2022/05/13 07:17:23;;;;;;;12.15;4.07;;;;;;;;;;10267698;28;20072;-65
2022/05/13 07:22:20;;;;;;;9.05;3.38;;;;;;;;;;10221311;28;20068;-66
2022/05/13 07:27:17;;;;;;;12.55;3.10;;;;;;;;;;10242198;28;20045;-66
2022/05/13 07:32:13;;;;;;;10.52;3.20;;;;;;;;;;10248486;28;20041;-66
2022/05/13 07:37:10;;;;;;;11.60;3.20;;;;;;;;;;10289455;28;20502;-66
2022/05/13 07:42:08;;;;;;;12.18;3.85;;;;;;;;;;10279517;28;20453;-66
2022/05/13 07:47:06;;;;;;;10.50;3.45;;;;;;;;;;10280384;28;20068;-66
2022/05/13 07:52:02;;;;;;;12.25;3.60;;;;;;;;;;10268735;28;20136;-67
2022/05/13 07:56:59;;;;;;;9.02;3.55;;;;;;;;;;10270778;28;20037;-66
2022/05/13 08:01:55;;;;;;;14.43;4.35;;;;;;;;;;10266039;28;20099;-66
2022/05/13 08:06:51;;;;;;;10.93;3.70;;;;;;;;;;10261307;28;20102;-67
2022/05/13 08:11:48;;;;;;;13.85;4.30;;;;;;;;;;10259831;28;20565;-66
2022/05/13 08:16:44;;;;;;;13.98;4.38;;;;;;;;;;10268110;28;20083;-66
2022/05/13 08:21:41;;;;;;;12.65;4.05;;;;;;;;;;10268888;28;20075;-66
2022/05/13 08:26:37;;;;;;;12.75;3.88;;;;;;;;;;10252508;28;20045;-66
2022/05/13 08:31:33;;;;;;;10.02;3.70;;;;;;;;;;10240482;28;20056;-66
2022/05/13 08:36:30;;;;;;;11.82;4.05;;;;;;;;;;10230935;28;20226;-66
2022/05/13 08:41:38;;;;;;;17.08;3.85;;;;;;;;;;10236987;28;20119;-66
2022/05/13 08:46:37;;;;;;;14.93;4.32;;;;;;;;;;10232120;28;20128;-67
2022/05/13 08:57:43;;;;;;;13.35;4.85;;;;;;;;;;10220184;28;20128;-64
2022/05/13 09:02:41;;;;;;;11.65;3.92;;;;;;;;;;10261649;28;20147;-64
2022/05/13 09:07:37;;;;;;;12.55;4.20;;;;;;;;;;10276670;28;20041;-64
2022/05/13 09:12:41;;;;;;;13.45;4.22;;;;;;;;;;10256849;28;20508;-64
2022/05/13 09:17:39;;;;;;;16.75;4.25;;;;;;;;;;10273024;28;20087;-64
2022/05/13 09:22:41;;;;;;;10.00;4.22;;;;;;;;;;10269889;28;20135;-64
2022/05/13 09:27:44;;;;;;;9.82;3.88;;;;;;;;;;10268765;28;20106;-70
2022/05/13 09:32:41;;;;;;;12.25;4.05;;;;;;;;;;10255202;28;20111;-64
2022/05/13 09:37:39;;;;;;;16.73;4.88;;;;;;;;;;10267026;28;20037;-64
2022/05/13 09:42:37;;;;;;;14.35;4.05;;;;;;;;;;10257085;28;20490;-64
2022/05/13 09:47:34;;;;;;;12.52;4.47;;;;;;;;;;10246550;28;20391;-62
2022/05/13 09:52:38;;;;;;;17.92;3.60;;;;;;;;;;10253257;28;20045;-63
2022/05/13 09:57:37;;;;;;;13.20;3.70;;;;;;;;;;10250085;28;20138;-64
2022/05/13 10:02:35;;;;;;;19.38;4.75;;;;;;;;;;10256311;28;20110;-64
2022/05/13 10:07:32;;;;;;;18.48;4.10;;;;;;;;;;10259075;28;20044;-64
2022/05/13 10:17:51;;;;;;;13.13;4.78;;;;;;;;;;10274035;28;20535;-63
2022/05/13 10:22:51;;;;;;;14.90;3.30;;;;;;;;;;10271403;28;20120;-64
2022/05/13 10:27:53;;;;;;;12.68;3.65;;;;;;;;;;10261606;28;20766;-63
2022/05/13 10:32:56;;;;;;;15.45;3.78;;;;;;;;;;10279213;28;20104;-64
2022/05/13 10:37:55;;;;;;;8.27;2.40;;;;;;;;;;10244245;28;20072;-63
2022/05/13 10:42:57;;;;;;;17.27;5.32;;;;;;;;;;10243088;28;20554;-63
2022/05/13 10:47:54;;;;;;;11.55;4.32;;;;;;;;;;10239651;28;20049;-63
2022/05/13 10:53:00;;;;;;;9.27;4.05;;;;;;;;;;10240845;28;20045;-64
2022/05/13 10:58:16;;;;;;;11.35;3.75;;;;;;;;;;10247900;28;20121;-63
2022/05/13 11:03:15;;;;;;;9.70;3.53;;;;;;;;;;10244602;28;20124;-64
2022/05/13 11:08:12;;;;;;;9.15;3.38;;;;;;;;;;10247456;28;20483;-64
2022/05/13 11:13:11;;;;;;;7.78;3.60;;;;;;;;;;10253559;28;20152;-64
2022/05/13 11:18:19;;;;;;;8.82;3.80;;;;;;;;;;10252753;28;20694;-64
2022/05/13 11:23:39;;;;;;;9.88;3.65;;;;;;;;;;10257459;28;20167;-63
2022/05/13 11:28:54;;;;;;;10.20;3.25;;;;;;;;;;10246459;28;20045;-64
2022/05/13 11:34:09;;;;;;;10.35;3.00;;;;;;;;;;10235994;28;20042;-64
2022/05/13 11:39:20;;;;;;;6.75;3.00;;;;;;;;;;10263362;28;20041;-64
2022/05/13 11:44:19;;;;;;;14.63;2.25;;;;;;;;;;10261661;28;20510;-63
2022/05/13 11:49:26;;;;;;;5.72;1.98;;;;;;;;;;10257207;28;20594;-63
2022/05/13 11:54:24;;;;;;;7.93;2.40;;;;;;;;;;10259908;28;20530;-64
2022/05/13 11:59:27;;;;;;;9.98;2.67;;;;;;;;;;10259165;28;20069;-63
2022/05/13 12:04:28;;;;;;;8.38;2.50;;;;;;;;;;10256624;28;20100;-63
2022/05/13 12:09:28;;;;;;;9.02;3.55;;;;;;;;;;10267610;28;20140;-63
2022/05/13 12:14:32;;;;;;;6.85;2.85;;;;;;;;;;10260007;28;20048;-63
2022/05/13 12:19:41;;;;;;;8.55;2.42;;;;;;;;;;10275891;28;20601;-64
2022/05/13 12:25:13;;;;;;;6.90;2.50;;;;;;;;;;10264553;28;20076;-64
2022/05/13 12:30:31;;;;;;;7.95;2.53;;;;;;;;;;10138994;28;20619;-63
2022/05/13 12:40:51;;;;;;;10.77;1.80;;;;;;;;;;10253178;28;20052;-63
2022/05/13 12:46:03;;;;;;;4.47;1.50;;;;;;;;;;10248305;28;20668;-63
2022/05/13 12:51:11;;;;;;;5.47;1.50;;;;;;;;;;10282697;28;20511;-63
2022/05/13 12:56:07;;;;;;;13.60;2.65;;;;;;;;;;10274551;28;20077;-63
2022/05/13 13:01:05;;;;;;;7.00;1.92;;;;;;;;;;10274397;28;20518;-63
2022/05/13 13:06:06;;;;;;;9.77;2.30;;;;;;;;;;10271126;28;20040;-64
2022/05/13 13:11:15;;;;;;;8.23;2.58;;;;;;;;;;10269675;28;20515;-64
2022/05/13 13:16:32;;;;;;;8.30;1.70;;;;;;;;;;10276537;28;20106;-63
2022/05/13 13:21:29;;;;;;;9.30;1.75;;;;;;;;;;10295844;28;20049;-64
2022/05/13 13:26:25;;;;;;;9.88;2.35;;;;;;;;;;10261060;28;20453;-63
2022/05/13 13:31:27;;;;;;;5.82;1.42;;;;;;;;;;10263423;28;20548;-63
2022/05/13 13:36:32;;;;;;;8.70;2.28;;;;;;;;;;10246925;28;20687;-64
2022/05/13 13:41:57;;;;;;;6.90;1.63;;;;;;;;;;10239344;28;20068;-62
2022/05/13 13:46:54;;;;;;;8.55;2.03;;;;;;;;;;10243504;28;20130;-66
2022/05/13 13:51:52;;;;;;;10.80;2.75;;;;;;;;;;10253431;28;20073;-64
2022/05/13 13:56:52;;;;;;;32.78;3.00;;;;;;;;;;10243131;28;20049;-62
2022/05/13 14:01:50;;;;;;;10.82;1.95;;;;;;;;;;10255700;28;20053;-62
2022/05/13 14:06:48;;;;;;;7.22;1.63;;;;;;;;;;10262253;28;20102;-64
2022/05/13 14:11:45;;;;;;;8.00;1.55;;;;;;;;;;10271390;28;20053;-66
2022/05/13 14:17:06;;;;;;;7.63;1.80;;;;;;;;;;10251562;28;20497;-66
2022/05/13 14:22:04;;;;;;;8.85;2.30;;;;;;;;;;10278993;28;20138;-65
2022/05/13 14:27:05;;;;;;;11.18;2.13;;;;;;;;;;10267729;28;20502;-66
2022/05/13 14:32:08;;;;;;;8.48;1.90;;;;;;;;;;10247595;28;20071;-66
2022/05/13 14:37:06;;;;;;;9.50;2.00;;;;;;;;;;10258145;28;20073;-65
2022/05/13 14:42:04;;;;;;;7.32;2.00;;;;;;;;;;10240619;28;20830;-65
2022/05/13 14:47:02;;;;;;;8.30;1.65;;;;;;;;;;10268578;28;20102;-63
2022/05/13 14:52:04;;;;;;;7.55;1.55;;;;;;;;;;10248726;28;20076;-66
2022/05/13 14:57:02;;;;;;;7.28;1.75;;;;;;;;;;10268068;28;20072;-66
2022/05/13 15:01:59;;;;;;;6.65;1.80;;;;;;;;;;10243472;28;20041;-66
2022/05/13 15:06:56;;;;;;;10.60;1.90;;;;;;;;;;10246611;28;20770;-67
2022/05/13 15:11:55;;;;;;;6.78;1.23;;;;;;;;;;10239261;28;20115;-64
2022/05/13 15:16:52;;;;;;;7.18;2.17;;;;;;;;;;10236945;28;20136;-64
2022/05/13 15:21:57;;;;;;;9.35;1.88;;;;;;;;;;10255553;28;20502;-63
2022/05/13 15:26:54;;;;;;;9.52;1.70;;;;;;;;;;10233117;28;20837;-63
2022/05/13 15:31:50;;;;;;;9.32;1.77;;;;;;;;;;10225821;28;20110;-63
2022/05/13 15:36:46;;;;;;;8.40;2.03;;;;;;;;;;10229520;28;20095;-63
2022/05/13 15:41:43;;;;;;;5.07;1.27;;;;;;;;;;10229884;28;20518;-63
2022/05/13 15:46:40;;;;;;;7.43;1.60;;;;;;;;;;10226497;28;20063;-63
2022/05/13 15:56:51;;;;;;;6.72;1.70;;;;;;;;;;10219787;28;20491;-64
2022/05/13 16:01:47;;;;;;;12.07;2.00;;;;;;;;;;10220225;28;20254;-65
2022/05/13 16:06:43;;;;;;;8.68;2.20;;;;;;;;;;10221207;28;20794;-65
2022/05/13 16:11:40;;;;;;;9.27;2.00;;;;;;;;;;10218906;28;20148;-64
2022/05/13 16:16:40;;;;;;;16.63;2.55;;;;;;;;;;10216702;28;20056;-65
2022/05/13 16:21:39;;;;;;;11.57;2.20;;;;;;;;;;10218790;28;20083;-65
2022/05/13 16:26:35;;;;;;;9.90;2.10;;;;;;;;;;10213427;28;20678;-64
2022/05/13 16:31:32;;;;;;;11.07;2.67;;;;;;;;;;10204125;28;20164;-63
2022/05/13 16:36:28;;;;;;;9.35;1.73;;;;;;;;;;10214989;28;20053;-64
2022/05/13 16:41:25;;;;;;;12.40;1.90;;;;;;;;;;10221948;28;20045;-67
2022/05/13 16:46:21;;;;;;;8.70;2.50;;;;;;;;;;10228561;28;20125;-66
2022/05/13 16:51:18;;;;;;;7.32;1.90;;;;;;;;;;10220567;28;20045;-66
2022/05/13 16:56:14;;;;;;;15.85;2.65;;;;;;;;;;10221795;28;20052;-67
2022/05/13 17:01:10;;;;;;;14.07;2.78;;;;;;;;;;10224496;28;20045;-66
2022/05/13 17:06:08;;;;;;;14.05;2.95;;;;;;;;;;10223008;28;20140;-66
2022/05/13 17:16:23;;;;;;;13.10;2.75;;;;;;;;;;10229396;28;20125;-65
2022/05/13 17:21:21;;;;;;;17.05;3.42;;;;;;;;;;10223202;28;20056;-63
2022/05/13 17:26:17;;;;;;;14.15;3.10;;;;;;;;;;10239871;28;20627;-64
2022/05/13 17:31:13;;;;;;;12.10;2.75;;;;;;;;;;10269078;28;20141;-66
2022/05/13 17:36:10;;;;;;;9.80;2.33;;;;;;;;;;10262496;28;20057;-66
2022/05/13 17:41:06;;;;;;;11.98;2.50;;;;;;;;;;10236451;28;20051;-64
2022/05/13 17:46:03;;;;;;;13.30;2.78;;;;;;;;;;10244987;28;20105;-64
2022/05/13 17:51:01;;;;;;;13.13;2.33;;;;;;;;;;10240256;28;20053;-65
2022/05/13 17:55:59;;;;;;;13.77;2.40;;;;;;;;;;10235549;28;20065;-66
2022/05/13 18:00:55;;;;;;;10.82;2.50;;;;;;;;;;10249201;28;20052;-65
2022/05/13 18:05:52;;;;;;;10.75;2.45;;;;;;;;;;10259304;28;20548;-65
2022/05/13 18:10:48;;;;;;;17.40;3.70;;;;;;;;;;10261802;28;20041;-66
2022/05/13 18:15:44;;;;;;;11.38;3.15;;;;;;;;;;10257602;28;20144;-66
2022/05/13 18:20:41;;;;;;;16.95;5.10;;;;;;;;;;10230552;28;20141;-66
2022/05/13 18:25:37;;;;;;;10.75;2.83;;;;;;;;;;10243952;28;20063;-66
2022/05/13 18:30:34;;;;;;;14.63;2.60;;;;;;;;;;10267005;28;20156;-66
2022/05/13 18:35:30;;;;;;;10.27;2.35;;;;;;;;;;10222512;28;20064;-66
2022/05/13 18:50:57;;;;;;;10.70;3.30;;;;;;;;;;10268168;28;20087;-67
2022/05/13 18:55:56;;;;;;;18.00;3.58;;;;;;;;;;10298750;28;20087;-68
2022/05/13 19:00:53;;;;;;;13.88;3.00;;;;;;;;;;10259788;28;20114;-67
2022/05/13 19:05:50;;;;;;;16.02;3.63;;;;;;;;;;10270706;28;20410;-67
2022/05/13 19:10:47;;;;;;;17.20;3.65;;;;;;;;;;10273079;28;20140;-66
2022/05/13 19:15:44;;;;;;;14.05;3.20;;;;;;;;;;10241482;28;20053;-67
2022/05/13 19:20:41;;;;;;;12.98;3.67;;;;;;;;;;10267042;28;20040;-67
2022/05/13 19:25:38;;;;;;;11.60;2.95;;;;;;;;;;10238590;28;20067;-67
2022/05/13 19:30:34;;;;;;;12.68;3.75;;;;;;;;;;10077953;28;20132;-66
2022/05/13 19:35:32;;;;;;;10.88;3.63;;;;;;;;;;10105322;28;20194;-63
2022/05/13 19:40:28;;;;;;;13.50;3.40;;;;;;;;;;10262912;28;20111;-63
2022/05/13 19:45:25;;;;;;;14.18;4.07;;;;;;;;;;10268350;28;20114;-63
2022/05/13 19:50:22;;;;;;;14.70;3.47;;;;;;;;;;10265740;28;20056;-63
2022/05/13 19:55:21;;;;;;;12.02;3.05;;;;;;;;;;10250497;28;20041;-63
2022/05/13 20:00:21;;;;;;;16.60;2.90;;;;;;;;;;10272586;28;20073;-63
2022/05/13 20:10:39;;;;;;;14.63;3.20;;;;;;;;;;10239743;28;20489;-62
2022/05/13 20:15:40;;;;;;;15.50;3.40;;;;;;;;;;10254667;28;20076;-63
2022/05/13 20:25:52;;;;;;;14.15;2.80;;;;;;;;;;10243524;28;20865;-63
2022/05/13 20:30:49;;;;;;;21.58;3.42;;;;;;;;;;10267507;28;20099;-63
2022/05/13 20:35:46;;;;;;;18.08;3.70;;;;;;;;;;10264049;28;20052;-63
2022/05/13 20:40:48;;;;;;;14.68;3.40;;;;;;;;;;10252446;28;20049;-63
2022/05/13 20:45:45;;;;;;;14.77;3.28;;;;;;;;;;10238709;28;20065;-64
2022/05/13 20:50:42;;;;;;;13.52;2.92;;;;;;;;;;10245463;28;20504;-64
2022/05/13 20:55:39;;;;;;;20.63;4.00;;;;;;;;;;10250161;28;20076;-63
2022/05/13 21:00:35;;;;;;;14.98;3.35;;;;;;;;;;10241204;28;20487;-64
2022/05/13 21:05:38;;;;;;;16.95;3.05;;;;;;;;;;10227950;28;20133;-63
2022/05/13 21:10:36;;;;;;;16.17;3.55;;;;;;;;;;10099114;28;20461;-64
2022/05/13 21:15:33;;;;;;;13.50;4.00;;;;;;;;;;10278886;28;20667;-64
2022/05/13 21:20:31;;;;;;;17.65;3.15;;;;;;;;;;10269048;28;20470;-63
2022/05/13 21:25:27;;;;;;;19.52;3.70;;;;;;;;;;10263702;28;20503;-63
2022/05/13 21:30:24;;;;;;;17.27;2.72;;;;;;;;;;10270688;28;20137;-63
2022/05/13 21:40:42;;;;;;;16.15;3.13;;;;;;;;;;10265795;28;20053;-63
2022/05/13 21:45:39;;;;;;;20.42;4.57;;;;;;;;;;10235313;28;20080;-62
2022/05/13 21:50:35;;;;;;;18.25;3.45;;;;;;;;;;10275789;28;20128;-64
2022/05/13 21:55:33;;;;;;;14.48;3.53;;;;;;;;;;10299708;28;20077;-65
2022/05/13 22:00:42;;;;;;;17.98;4.10;;;;;;;;;;10262425;28;20057;-64
2022/05/13 22:05:40;;;;;;;21.27;4.07;;;;;;;;;;10285817;28;20051;-65
2022/05/13 22:10:36;;;;;;;15.57;3.17;;;;;;;;;;10269141;28;20120;-65
2022/05/13 22:15:33;;;;;;;17.13;3.55;;;;;;;;;;10281867;28;20138;-63
2022/05/13 22:20:29;;;;;;;20.60;4.90;;;;;;;;;;10247820;28;20047;-64
2022/05/13 22:25:26;;;;;;;16.40;4.28;;;;;;;;;;10266790;28;21002;-64
2022/05/13 22:30:22;;;;;;;18.63;3.83;;;;;;;;;;10266264;28;20107;-64
2022/05/13 22:35:19;;;;;;;18.63;3.95;;;;;;;;;;10272877;28;20059;-63
2022/05/13 22:40:15;;;;;;;21.95;5.05;;;;;;;;;;10265821;28;20479;-65
2022/05/13 22:45:12;;;;;;;19.02;3.80;;;;;;;;;;10276564;28;20098;-65
2022/05/13 22:50:11;;;;;;;16.23;3.95;;;;;;;;;;10273637;28;20562;-65
2022/05/13 22:55:07;;;;;;;16.98;3.85;;;;;;;;;;10272247;28;20087;-63
2022/05/13 23:00:07;;;;;;;11.27;3.33;;;;;;;;;;10265504;28;20057;-63
2022/05/13 23:05:03;;;;;;;18.60;3.75;;;;;;;;;;10269416;28;20048;-66
2022/05/13 23:15:15;;;;;;;16.73;3.55;;;;;;;;;;10288356;28;20135;-62
2022/05/13 23:20:23;;;;;;;14.95;2.92;;;;;;;;;;10246554;28;20045;-61
2022/05/13 23:25:19;;;;;;;17.30;3.38;;;;;;;;;;10263915;28;20136;-63
2022/05/13 23:30:15;;;;;;;11.73;2.92;;;;;;;;;;10263775;28;20049;-61
2022/05/13 23:35:12;;;;;;;9.68;2.55;;;;;;;;;;10264470;28;20121;-62
2022/05/13 23:40:09;;;;;;;13.27;3.50;;;;;;;;;;10267294;28;20506;-62
2022/05/13 23:45:07;;;;;;;10.25;2.40;;;;;;;;;;10267500;28;20081;-62
2022/05/13 23:50:04;;;;;;;13.85;3.33;;;;;;;;;;10264275;28;20080;-64
